Terminal Aerodrome Forecast
Issued by NWS

Home | Current Version | Previous Version | Text Only | Print | Product List | Glossary On
Versions: 1 2 3 4 5 6 7 8 9 10 11 12 13
000
FTUS43 KILX 011125
TAFBMI
TAF
KBMI 011125Z 0112/0212 VRB05KT P6SM SKC
     FM012000 24010KT P6SM SKC
     FM020200 22007KT P6SM SCT250
     FM021000 22006KT P6SM BKN150=

USA.gov is the U.S. government's official web portal to all federal, state and local government web resources and services.